Time;durP1;ratioP1;P1;durP2;ratioP2;P2;SDS_P1;SDS_P2;PMS_P1;PMS_P2;Temp;Humidity;BMP_temperature;BMP_pressure;BME280_temperature;BME280_humidity;BME280_pressure;Samples;Min_cycle;Max_cycle;Signal;HPM_P1;HPM_P2
2023/12/01 00:00:53;;;;;;;61.58;18.95;;;;;;;;;;5062321;28;20060;-76
2023/12/01 00:03:20;;;;;;;59.03;17.65;;;;;;;;;;5075832;28;20044;-76
2023/12/01 00:05:46;;;;;;;;;;;;;;;;;;5080185;28;20147;-75
2023/12/01 00:08:17;;;;;;;60.92;18.25;;;;;;;;;;5070366;28;19985;-80
2023/12/01 00:10:43;;;;;;;;;;;;;;;;;;5071334;28;20497;-76
2023/12/01 00:13:09;;;;;;;67.38;16.98;;;;;;;;;;5053415;28;19921;-76
2023/12/01 00:15:41;;;;;;;48.97;15.35;;;;;;;;;;5054351;28;20141;-76
2023/12/01 00:18:13;;;;;;;51.05;16.58;;;;;;;;;;5054407;28;20048;-75
2023/12/01 00:20:39;;;;;;;;;;;;;;;;;;5054743;28;20050;-75
2023/12/01 00:23:05;;;;;;;53.83;15.50;;;;;;;;;;5050593;28;20019;-76
2023/12/01 00:25:31;;;;;;;;;;;;;;;;;;5045652;28;20048;-76
2023/12/01 00:27:58;;;;;;;62.63;16.50;;;;;;;;;;5052517;28;19934;-75
2023/12/01 00:30:28;;;;;;;66.50;18.13;;;;;;;;;;5069367;28;20124;-77
2023/12/01 00:32:54;;;;;;;62.22;18.17;;;;;;;;;;5070579;28;20056;-75
2023/12/01 00:35:20;;;;;;;51.95;15.77;;;;;;;;;;5054339;28;20053;-76
2023/12/01 00:37:46;;;;;;;;;;;;;;;;;;5070123;28;20136;-76
2023/12/01 00:40:13;;;;;;;48.08;13.95;;;;;;;;;;5052990;28;20010;-76
2023/12/01 00:42:38;;;;;;;;;;;;;;;;;;5052633;28;20052;-76
2023/12/01 00:45:05;;;;;;;52.13;15.02;;;;;;;;;;5070919;28;19966;-75
2023/12/01 00:47:32;;;;;;;54.20;15.50;;;;;;;;;;5070078;28;20083;-75
2023/12/01 00:49:58;;;;;;;55.03;16.42;;;;;;;;;;5070425;28;20485;-76
2023/12/01 00:52:24;;;;;;;;;;;;;;;;;;5069210;28;20060;-79
2023/12/01 00:54:51;;;;;;;55.08;15.77;;;;;;;;;;5053760;28;19920;-75
2023/12/01 00:57:17;;;;;;;54.30;16.00;;;;;;;;;;5068388;28;20156;-76
2023/12/01 00:59:43;;;;;;;;;;;;;;;;;;5070191;28;20046;-76
2023/12/01 01:02:09;;;;;;;49.67;14.65;;;;;;;;;;5053555;28;20341;-75
2023/12/01 01:04:35;;;;;;;;;;;;;;;;;;5052807;28;20048;-76
2023/12/01 01:07:02;;;;;;;47.15;14.73;;;;;;;;;;5049684;28;19928;-75
2023/12/01 01:09:29;;;;;;;44.88;13.90;;;;;;;;;;5059714;28;20059;-79
2023/12/01 01:11:55;;;;;;;;;;;;;;;;;;5044588;28;20063;-77
2023/12/01 01:14:21;;;;;;;48.00;15.07;;;;;;;;;;5060928;28;19920;-75
2023/12/01 01:16:51;;;;;;;47.60;14.32;;;;;;;;;;5070068;28;20049;-75
2023/12/01 01:19:17;;;;;;;;;;;;;;;;;;5071733;28;20041;-76
2023/12/01 01:21:44;;;;;;;49.70;13.27;;;;;;;;;;5052688;28;19927;-75
2023/12/01 01:24:10;;;;;;;41.47;12.52;;;;;;;;;;5069558;28;20131;-75
2023/12/01 01:26:36;;;;;;;;;;;;;;;;;;5053405;28;20055;-75
2023/12/01 01:29:02;;;;;;;43.60;12.63;;;;;;;;;;5052658;28;19920;-75
2023/12/01 01:31:28;;;;;;;41.60;12.65;;;;;;;;;;5069186;28;20068;-76
2023/12/01 01:33:54;;;;;;;;;;;;;;;;;;5070520;28;20058;-75
2023/12/01 01:36:26;;;;;;;42.05;11.27;;;;;;;;;;5068643;28;19982;-75
2023/12/01 01:38:52;;;;;;;;;;;;;;;;;;5069273;28;20122;-75
2023/12/01 01:41:18;;;;;;;38.40;12.25;;;;;;;;;;5069626;28;20428;-75
2023/12/01 01:43:44;;;;;;;;;;;;;;;;;;5070007;28;20452;-76
2023/12/01 01:46:14;;;;;;;48.95;13.45;;;;;;;;;;5069343;28;19924;-75
2023/12/01 01:48:43;;;;;;;38.42;12.27;;;;;;;;;;5070321;28;20119;-75
2023/12/01 01:51:10;;;;;;;40.58;12.18;;;;;;;;;;5070769;28;20044;-75
2023/12/01 01:53:43;;;;;;;40.20;13.23;;;;;;;;;;5069151;28;20131;-76
2023/12/01 01:56:12;;;;;;;46.53;13.50;;;;;;;;;;5068973;28;20397;-76
2023/12/01 01:58:38;;;;;;;39.88;12.82;;;;;;;;;;5069668;28;20047;-75
2023/12/01 02:01:07;;;;;;;39.05;13.55;;;;;;;;;;5069115;28;20056;-75
2023/12/01 02:03:33;;;;;;;35.22;12.23;;;;;;;;;;5070378;28;20119;-79
2023/12/01 02:06:06;;;;;;;39.65;12.95;;;;;;;;;;5053272;28;20056;-75
2023/12/01 02:08:33;;;;;;;37.10;12.30;;;;;;;;;;5053866;28;20113;-76
2023/12/01 02:11:00;;;;;;;42.72;12.10;;;;;;;;;;5069057;28;20115;-76
2023/12/01 02:13:27;;;;;;;35.92;11.43;;;;;;;;;;5069997;28;20589;-76
2023/12/01 02:15:53;;;;;;;30.90;8.57;;;;;;;;;;5068428;28;20032;-75
2023/12/01 02:18:19;;;;;;;46.67;13.65;;;;;;;;;;5069712;28;20494;-76
2023/12/01 02:20:51;;;;;;;31.65;12.18;;;;;;;;;;5069010;28;20166;-75
2023/12/01 02:23:18;;;;;;;31.67;11.38;;;;;;;;;;5052620;28;20375;-75
2023/12/01 02:25:44;;;;;;;30.45;11.15;;;;;;;;;;5054840;28;20045;-76
2023/12/01 02:28:10;;;;;;;;;;;;;;;;;;5057551;28;20133;-75
2023/12/01 02:30:36;;;;;;;29.25;10.93;;;;;;;;;;5036079;28;20050;-80
2023/12/01 02:33:02;;;;;;;;;;;;;;;;;;5036863;28;20045;-75
2023/12/01 02:35:29;;;;;;;34.05;11.32;;;;;;;;;;5070125;28;19920;-76
2023/12/01 02:37:59;;;;;;;31.50;11.07;;;;;;;;;;5052033;28;20099;-77
2023/12/01 02:40:25;;;;;;;36.63;8.85;;;;;;;;;;5054540;28;20142;-76
2023/12/01 02:42:52;;;;;;;63.50;14.00;;;;;;;;;;5065775;28;20048;-76
2023/12/01 02:45:20;;;;;;;33.22;12.10;;;;;;;;;;5072912;28;20071;-75
2023/12/01 02:47:50;;;;;;;32.10;11.90;;;;;;;;;;5073464;28;20045;-75
2023/12/01 02:50:19;;;;;;;30.13;11.77;;;;;;;;;;5072853;28;20049;-75
2023/12/01 02:52:45;;;;;;;36.53;10.20;;;;;;;;;;5072186;28;20048;-76
2023/12/01 02:55:14;;;;;;;;;;;;;;;;;;5073180;28;20393;-76
2023/12/01 02:57:40;;;;;;;33.22;11.85;;;;;;;;;;5051228;28;19921;-79
2023/12/01 03:00:13;;;;;;;31.35;10.75;;;2.10;99.90;;;;;;5057761;28;20375;-75
2023/12/01 03:02:43;;;;;;;31.50;10.77;;;1.90;99.90;;;;;;5073380;28;20060;-76
2023/12/01 03:05:10;;;;;;;32.33;11.95;;;1.50;99.90;;;;;;5056391;28;20052;-76
2023/12/01 03:07:37;;;;;;;28.65;11.10;;;2.80;99.90;;;;;;5086384;28;20048;-77
2023/12/01 03:10:03;;;;;;;30.05;10.90;;;;;;;;;;5075189;28;20043;-75
2023/12/01 03:12:30;;;;;;;33.95;10.93;;;;;;;;;;5054679;28;20482;-75
2023/12/01 03:14:56;;;;;;;31.80;11.57;;;;;;;;;;5072672;28;20159;-75
2023/12/01 03:17:23;;;;;;;32.88;11.95;;;;;;;;;;5057170;28;20045;-75
2023/12/01 03:19:49;;;;;;;28.40;10.43;;;;;;;;;;5058633;28;20052;-76
2023/12/01 03:22:16;;;;;;;29.52;12.35;;;;;;;;;;5093719;28;20112;-75
2023/12/01 03:24:42;;;;;;;;;;;;;;;;;;5054669;28;20048;-80
2023/12/01 03:27:08;;;;;;;29.85;10.30;;;;;;;;;;5054681;28;19928;-76
2023/12/01 03:29:34;;;;;;;;;;;;;;;;;;5076107;28;20047;-76
2023/12/01 03:32:01;;;;;;;33.38;11.35;;;;;;;;;;5074710;28;20109;-75
2023/12/01 03:34:27;;;;;;;29.10;11.10;;;;;;;;;;5075209;28;20051;-76
2023/12/01 03:36:53;;;;;;;31.35;10.80;;;;;;;;;;5092836;28;20044;-78
2023/12/01 03:39:19;;;;;;;;;;;;;;;;;;5075659;28;20132;-76
2023/12/01 03:41:48;;;;;;;32.38;11.43;;;;;;;;;;5054769;28;19920;-77
2023/12/01 03:44:15;;;;;;;27.50;10.77;;;;;;;;;;5054901;28;20052;-76
2023/12/01 03:46:41;;;;;;;33.30;10.05;;;;;;;;;;5060420;28;20048;-76
2023/12/01 03:49:07;;;;;;;57.20;13.18;;;;;;;;;;5038099;28;20048;-75
2023/12/01 03:51:33;;;;;;;;;;;;;;;;;;5039020;28;20234;-75
2023/12/01 03:53:59;;;;;;;27.17;9.45;;;;;;;;;;5044567;28;19920;-75
2023/12/01 03:56:25;;;;;;;;;;;;;;;;;;5055683;28;20127;-75
2023/12/01 03:58:54;;;;;;;25.08;10.13;;;;;;;;;;5053248;28;19959;-75
2023/12/01 04:01:20;;;;;;;27.25;10.10;;;;;;;;;;5063051;28;20456;-75
2023/12/01 04:03:47;;;;;;;26.05;9.77;;;;;;;;;;5054417;28;20604;-79
2023/12/01 04:06:12;;;;;;;;;;;;;;;;;;5071821;28;20119;-76
2023/12/01 04:08:39;;;;;;;33.97;11.82;;;;;;;;;;5071036;28;20007;-75
2023/12/01 04:11:06;;;;;;;27.95;10.85;;;;;;;;;;5070610;28;20044;-75
2023/12/01 04:13:32;;;;;;;24.77;9.32;;;;;;;;;;5037345;28;20127;-76
2023/12/01 04:15:58;;;;;;;29.00;10.70;;;;;;;;;;5050635;28;20045;-76
2023/12/01 04:18:28;;;;;;;28.50;10.48;;;;;;;;;;5069013;28;20044;-76
2023/12/01 04:20:54;;;;;;;28.58;10.65;;;;;;;;;;5070729;28;20492;-75
2023/12/01 04:23:20;;;;;;;36.28;9.00;;;;;;;;;;5054171;28;20044;-75
2023/12/01 04:25:47;;;;;;;;;;;;;;;;;;5071545;28;20052;-76
2023/12/01 04:28:14;;;;;;;37.87;11.50;;;;;;;;;;5069659;28;19927;-75
2023/12/01 04:30:40;;;;;;;34.35;11.50;;;;;;;;;;5037282;28;20044;-76
2023/12/01 04:33:07;;;;;;;30.33;11.68;;;;;;;;;;5070158;28;20045;-75
2023/12/01 04:35:34;;;;;;;27.33;9.05;;;;;;;;;;5071128;28;20131;-76
2023/12/01 04:38:03;;;;;;;35.88;12.27;;;;;;;;;;5069809;28;20040;-75
2023/12/01 04:40:30;;;;;;;32.22;11.85;;;;;;;;;;5066657;28;20044;-75
2023/12/01 04:42:57;;;;;;;31.08;11.13;;;;;;;;;;5052035;28;20071;-75
2023/12/01 04:45:24;;;;;;;27.45;10.40;;;;;;;;;;5033266;28;20044;-75
2023/12/01 04:47:51;;;;;;;37.42;12.27;;;;;;;;;;5050950;28;20049;-79
2023/12/01 04:50:18;;;;;;;33.63;12.10;;;;;;;;;;5050478;28;20550;-76
2023/12/01 04:52:45;;;;;;;35.53;12.63;;;;;;;;;;5050569;28;20099;-75
2023/12/01 04:55:13;;;;;;;34.75;12.63;;;;;;;;;;5050092;28;20052;-76
2023/12/01 04:57:39;;;;;;;38.35;10.05;;;;;;;;;;5032994;28;20040;-75
2023/12/01 05:00:19;;;;;;;39.63;13.98;;;;;;;;;;5033717;28;20055;-75
2023/12/01 05:02:49;;;;;;;33.65;11.20;;;;;;;;;;5054118;28;20040;-75
2023/12/01 05:05:16;;;;;;;43.60;12.85;;;;;;;;;;5046607;28;20515;-75
2023/12/01 05:07:42;;;;;;;48.72;12.48;;;;;;;;;;5090457;28;20079;-76
2023/12/01 05:10:14;;;;;;;51.30;13.80;;;;;;;;;;5073478;28;20059;-76
2023/12/01 05:12:44;;;;;;;40.08;13.00;;;;;;;;;;5037151;28;20044;-76
2023/12/01 05:15:17;;;;;;;33.58;11.93;;;;;;;;;;5052886;28;20051;-75
2023/12/01 05:17:47;;;;;;;33.92;12.80;;;;;;;;;;5036646;28;20083;-76
2023/12/01 05:20:17;;;;;;;37.92;13.18;;;;;;;;;;5037015;28;20037;-76
2023/12/01 05:22:44;;;;;;;32.38;11.60;;;;;;;;;;5053340;28;20036;-75
2023/12/01 05:25:13;;;;;;;40.10;13.40;;;;;;;;;;5057159;28;20498;-75
2023/12/01 05:27:44;;;;;;;30.63;11.52;;;;;;;;;;5052943;28;20052;-76
2023/12/01 05:30:12;;;;;;;40.58;13.23;;;;;;;;;;5035981;28;20041;-76
2023/12/01 05:32:39;;;;;;;36.60;11.52;;;;;;;;;;5053877;28;20399;-76
2023/12/01 05:35:05;;;;;;;35.97;11.65;;;;;;;;;;5069791;28;20423;-75
2023/12/01 05:37:31;;;;;;;33.55;11.85;;;;;;;;;;5070302;28;20048;-75
2023/12/01 05:39:57;;;;;;;;;;;;;;;;;;5051524;28;20070;-75
2023/12/01 05:42:23;;;;;;;36.35;13.15;;;;;;;;;;5052702;28;20370;-76
2023/12/01 05:44:49;;;;;;;;;;;;;;;;;;5053499;28;20044;-75
2023/12/01 05:47:15;;;;;;;40.22;13.00;;;;;;;;;;5054795;28;19916;-75
2023/12/01 05:49:41;;;;;;;;;;;;;;;;;;5069154;28;20056;-76
2023/12/01 05:52:07;;;;;;;34.72;11.48;;;;;;;;;;5069415;28;19920;-75
2023/12/01 05:54:33;;;;;;;;;;;;;;;;;;5053774;28;20045;-76
2023/12/01 05:56:59;;;;;;;39.15;12.35;;;;;;;;;;5051990;28;19924;-77
2023/12/01 05:59:25;;;;;;;;;;;;;;;;;;5055763;28;20049;-75
2023/12/01 06:01:51;;;;;;;37.50;12.30;;;;;;;;;;5056176;28;19977;-75
2023/12/01 06:04:17;;;;;;;;;;;;;;;;;;5057308;28;20052;-76
2023/12/01 06:06:43;;;;;;;36.05;10.95;;;;;;;;;;5057068;28;20362;-76
2023/12/01 06:09:15;;;;;;;;;;;;;;;;;;5086481;28;20102;-75
2023/12/01 06:11:42;;;;;;;40.22;12.80;;;;;;;;;;5073655;28;19924;-75
2023/12/01 06:14:09;;;;;;;40.78;12.25;;;;;;;;;;5063921;28;20093;-75
2023/12/01 06:16:35;;;;;;;38.75;12.85;;;;;;;;;;5065647;28;20047;-76
2023/12/01 06:19:02;;;;;;;40.53;13.15;;;;;;;;;;5059759;28;20580;-76
2023/12/01 06:21:28;;;;;;;36.75;12.73;;;;;;;;;;5056624;28;20486;-75
2023/12/01 06:23:53;;;;;;;;;;;;;;;;;;5073925;28;20385;-75
2023/12/01 06:26:20;;;;;;;35.50;12.38;;;;;;;;;;5056318;28;19920;-75
2023/12/01 06:28:45;;;;;;;;;;;;;;;;;;5023371;28;20052;-75
2023/12/01 06:31:12;;;;;;;33.72;11.02;;;;;;;;;;5055787;28;19926;-75
2023/12/01 06:33:37;;;;;;;;;;;;;;;;;;5060606;28;20043;-75
2023/12/01 06:36:04;;;;;;;32.05;11.25;;;;;;;;;;5065855;28;19926;-75
2023/12/01 06:38:30;;;;;;;30.90;11.30;;;;;;;;;;5039928;28;20045;-76
2023/12/01 06:40:56;;;;;;;;;;;;;;;;;;5072833;28;20044;-75
2023/12/01 06:43:22;;;;;;;34.35;12.00;;;;;;;;;;5058497;28;20353;-75
2023/12/01 06:45:50;;;;;;;38.97;11.73;;;;;;;;;;5076207;28;20055;-76
2023/12/01 06:48:17;;;;;;;31.02;10.60;;;;;;;;;;5075902;28;20503;-76
2023/12/01 06:50:43;;;;;;;28.13;9.98;;;;;;;;;;5093188;28;20097;-75
2023/12/01 06:53:10;;;;;;;24.55;9.57;;;;;;;;;;5038295;28;20091;-75
2023/12/01 06:55:36;;;;;;;30.45;10.93;;;;;;;;;;5073930;28;20517;-76
2023/12/01 06:58:02;;;;;;;29.45;10.48;;;;;;;;;;5062933;28;20154;-78
2023/12/01 07:00:29;;;;;;;25.58;9.18;;;;;;;;;;5092720;28;20096;-75
2023/12/01 07:02:59;;;;;;;;;;;;;;;;;;5076471;28;20063;-76
2023/12/01 07:05:25;;;;;;;27.40;9.55;;;;;;;;;;5075850;28;19920;-75
2023/12/01 07:07:52;;;;;;;24.83;8.88;;;;;;;;;;5075904;28;20044;-75
2023/12/01 07:10:18;;;;;;;26.17;9.32;;;;;;;;;;5071454;28;20044;-75
2023/12/01 07:12:45;;;;;;;26.60;9.02;;;;;;;;;;5055117;28;20049;-76
2023/12/01 07:15:13;;;;;;;25.38;9.05;;;;;;;;;;5054904;28;20405;-75
2023/12/01 07:17:40;;;;;;;28.88;9.60;;;;;;;;;;5055659;28;20074;-76
2023/12/01 07:20:15;;;;;;;24.35;8.70;;;;;;;;;;5038846;28;20139;-75
2023/12/01 07:22:45;;;;;;;24.53;9.07;;;;;;;;;;5060643;28;20486;-75
2023/12/01 07:25:21;;;;;;;29.08;9.18;;;;;;;;;;5093190;28;20430;-76
2023/12/01 07:27:47;;;;;;;29.05;9.32;;;;;;;;;;5058282;28;20051;-76
2023/12/01 07:30:16;;;;;;;26.05;9.60;;;;;;;;;;5058026;28;20543;-75
2023/12/01 07:32:43;;;;;;;27.85;10.35;;;;;;;;;;5054801;28;20052;-75
2023/12/01 07:35:10;;;;;;;25.60;8.90;;;;;;;;;;5055037;28;20067;-75
2023/12/01 07:37:37;;;;;;;24.35;9.40;;;;;;;;;;5038841;28;20067;-75
2023/12/01 07:40:06;;;;;;;26.17;9.10;;;;;;;;;;5055157;28;20044;-75
2023/12/01 07:42:32;;;;;;;25.65;9.38;;;;;;;;;;5063703;28;20101;-75
2023/12/01 07:45:00;;;;;;;26.92;9.65;;;;;;;;;;5092731;28;20048;-75
2023/12/01 07:47:26;;;;;;;27.25;8.57;;;;;;;;;;5074974;28;20083;-75
2023/12/01 07:49:52;;;;;;;25.45;9.80;;;;;;;;;;5070884;28;20060;-75
2023/12/01 07:52:19;;;;;;;;;;;;;;;;;;5064400;28;20047;-75
2023/12/01 07:54:46;;;;;;;25.98;9.55;;;;;;;;;;5078878;28;19920;-76
2023/12/01 07:57:12;;;;;;;25.88;9.93;;;;;;;;;;5072473;28;20046;-75
2023/12/01 07:59:38;;;;;;;;;;;;;;;;;;5078546;28;20044;-76
2023/12/01 08:02:04;;;;;;;25.20;9.18;;;;;;;;;;5074093;28;19927;-75
2023/12/01 08:04:30;;;;;;;28.77;8.75;;;;;;;;;;5053368;28;20496;-75
2023/12/01 08:06:56;;;;;;;25.23;9.65;;;;;;;;;;5057296;28;20055;-76
2023/12/01 08:09:23;;;;;;;24.48;9.38;;;;;;;;;;5072542;28;20113;-76
2023/12/01 08:11:49;;;;;;;27.75;10.10;;;;;;;;;;5090330;28;20137;-77
2023/12/01 08:14:15;;;;;;;;;;;;;;;;;;5068440;28;20044;-77
2023/12/01 08:16:44;;;;;;;28.70;10.55;;;;;;;;;;5037811;28;20065;-76
2023/12/01 08:19:11;;;;;;;28.20;10.13;;;;;;;;;;5075680;28;20044;-79
2023/12/01 08:21:37;;;;;;;28.65;9.50;;;;;;;;;;5070280;28;20063;-76
2023/12/01 08:24:04;;;;;;;29.98;9.98;;;;;;;;;;5063740;28;20055;-75
2023/12/01 08:26:31;;;;;;;25.27;10.00;;;;;;;;;;5075778;28;20139;-75
2023/12/01 08:28:58;;;;;;;30.17;10.20;;;;;;;;;;5075794;28;20138;-76
2023/12/01 08:31:24;;;;;;;27.60;10.65;;;;;;;;;;5054554;28;20037;-78
2023/12/01 08:33:50;;;;;;;28.13;10.63;;;;;;;;;;5048507;28;20040;-78
2023/12/01 08:36:18;;;;;;;29.90;10.18;;;;;;;;;;5062203;28;20040;-76
2023/12/01 08:38:44;;;;;;;25.23;9.80;;;;;;;;;;5067349;28;20052;-76
2023/12/01 08:41:10;;;;;;;;;;;;;;;;;;5070920;28;20127;-76
2023/12/01 08:43:37;;;;;;;23.27;8.50;;;;;;;;;;5051993;28;19924;-74
2023/12/01 08:46:03;;;;;;;25.42;9.65;;;;;;;;;;5064119;28;20047;-76
2023/12/01 08:48:29;;;;;;;;;;;;;;;;;;5070205;28;20068;-75
2023/12/01 08:50:55;;;;;;;30.05;10.90;;;;;;;;;;5072219;28;20005;-76
2023/12/01 08:53:22;;;;;;;;;;;;;;;;;;5053430;28;20083;-76
2023/12/01 08:55:48;;;;;;;;;;;;;;;;;;5071041;28;19920;-76
2023/12/01 08:58:14;;;;;;;29.60;10.15;;;;;;;;;;5063570;28;19927;-75
2023/12/01 09:00:40;;;;;;;;;;;;;;;;;;5053336;28;20044;-76
2023/12/01 09:03:07;;;;;;;31.83;11.27;;;;;;;;;;5070438;28;20373;-76
2023/12/01 09:05:33;;;;;;;25.67;9.32;;;;;;;;;;5053496;28;20115;-77
2023/12/01 09:08:04;;;;;;;;;;;;;;;;;;5070758;28;20073;-75
2023/12/01 09:10:30;;;;;;;28.60;10.60;;;;;;;;;;5069417;28;20370;-76
2023/12/01 09:12:56;;;;;;;;;;;;;;;;;;5053279;28;20088;-75
2023/12/01 09:15:22;;;;;;;22.73;9.02;;;;;;;;;;5069315;28;19990;-76
2023/12/01 09:17:48;;;;;;;;;;;;;;;;;;5037744;28;20084;-76
2023/12/01 09:20:14;;;;;;;27.05;10.48;;;;;;;;;;5070090;28;19971;-76
2023/12/01 09:22:40;;;;;;;26.70;9.40;;;;;;;;;;5049678;28;20079;-76
2023/12/01 09:25:06;;;;;;;;;;;;;;;;;;5047430;28;20063;-76
2023/12/01 09:27:32;;;;;;;28.73;10.97;;;;;;;;;;5050256;28;19972;-77
2023/12/01 09:29:58;;;;;;;;;;;;;;;;;;5063842;28;20053;-77
2023/12/01 09:32:24;;;;;;;26.05;9.40;;;;;;;;;;5069528;28;19927;-76
2023/12/01 09:34:50;;;;;;;;;;;;;;;;;;5074805;28;20075;-76
2023/12/01 09:37:17;;;;;;;33.10;10.23;;;;;;;;;;5072636;28;19967;-78
2023/12/01 09:39:43;;;;;;;;;;;;;;;;;;5089682;28;20075;-76
2023/12/01 09:42:09;;;;;;;22.55;8.73;;;;;;;;;;5056644;28;19999;-77
2023/12/01 09:44:38;;;;;;;25.23;9.93;;;;;;;;;;5057317;28;20517;-77
2023/12/01 09:47:04;;;;;;;22.95;8.88;;;;;;;;;;5073993;28;20044;-76
2023/12/01 09:49:33;;;;;;;31.65;10.40;;;;;;;;;;5057381;28;20114;-76
2023/12/01 09:52:00;;;;;;;26.27;9.43;;;;;;;;;;5053471;28;20124;-76
2023/12/01 09:54:26;;;;;;;25.60;9.90;;;;;;;;;;5052212;28;20124;-78
2023/12/01 09:56:52;;;;;;;;;;;;;;;;;;5063506;28;20178;-77
2023/12/01 09:59:19;;;;;;;24.07;9.20;;;;;;;;;;5061969;28;19974;-76
2023/12/01 10:01:47;;;;;;;22.05;9.48;;;;;;;;;;5065074;28;21077;-76
2023/12/01 10:04:14;;;;;;;22.40;9.32;;;;;;;;;;5086310;28;20489;-76
2023/12/01 10:06:40;;;;;;;24.95;9.55;;;;;;;;;;5068310;28;20527;-76
2023/12/01 10:09:09;;;;;;;22.02;9.38;;;;;;;;;;5079106;28;20073;-76
2023/12/01 10:11:37;;;;;;;23.00;10.00;;;;;;;;;;5052396;28;20387;-77
2023/12/01 10:14:06;;;;;;;19.67;8.30;;;;;;;;;;5052423;28;20477;-77
2023/12/01 10:16:38;;;;;;;23.10;9.73;;;;;;;;;;5065451;28;20044;-76
2023/12/01 10:19:05;;;;;;;26.45;9.88;;;;;;;;;;5065071;28;20048;-76
2023/12/01 10:21:42;;;;;;;22.60;10.23;;;;;;;;;;5073036;28;20106;-76
2023/12/01 10:24:13;;;;;;;21.55;9.35;;;;;;;;;;5064307;28;20519;-75
2023/12/01 10:26:39;;;;;;;22.67;10.32;;;;;;;;;;5056003;28;20129;-74
2023/12/01 10:29:07;;;;;;;22.52;9.57;;;;;;;;;;5065330;28;20040;-76
2023/12/01 10:31:33;;;;;;;21.75;9.63;;;;;;;;;;5069908;28;20053;-76
2023/12/01 10:33:59;;;;;;;21.20;9.10;;;;;;;;;;5056041;28;20044;-78
2023/12/01 10:36:29;;;;;;;21.40;8.98;;;;;;;;;;5072756;28;20049;-81
2023/12/01 10:38:56;;;;;;;;;;;;;;;;;;5056594;28;20045;-76
2023/12/01 10:41:26;;;;;;;21.80;9.50;;;;;;;;;;5074318;28;20068;-76
2023/12/01 10:43:52;;;;;;;23.73;10.02;;;;;;;;;;5071315;28;20113;-76
2023/12/01 10:46:18;;;;;;;;;;;;;;;;;;5072325;28;20057;-77
2023/12/01 10:48:45;;;;;;;19.38;8.70;;;;;;;;;;5072076;28;20357;-77
2023/12/01 10:51:12;;;;;;;21.27;9.02;;;;;;;;;;5072625;28;20043;-77
2023/12/01 10:53:40;;;;;;;17.25;8.25;;;;;;;;;;5053160;28;20044;-77
2023/12/01 10:56:12;;;;;;;17.27;8.27;;;;;;;;;;5052782;28;20501;-77
2023/12/01 10:58:40;;;;;;;19.35;8.65;;;;;;;;;;5071166;28;20048;-77
2023/12/01 11:01:07;;;;;;;14.90;7.45;;;;;;;;;;5082671;28;20056;-77
2023/12/01 11:03:34;;;;;;;17.20;8.90;;;;;;;;;;5075953;28;20048;-81
2023/12/01 11:06:03;;;;;;;16.58;8.95;;;;;;;;;;5076029;28;20048;-75
2023/12/01 11:08:32;;;;;;;18.42;9.23;;;;;;;;;;5062859;28;20040;-75
2023/12/01 11:11:07;;;;;;;17.83;8.52;;;;;;;;;;5075120;28;20044;-75
2023/12/01 11:13:49;;;;;;;14.82;7.47;;;;;;;;;;5074883;28;20044;-80
2023/12/01 11:16:16;;;;;;;20.50;9.63;;;;;;;;;;5071834;28;20043;-76
2023/12/01 11:18:46;;;;;;;17.48;9.05;;;;;;;;;;5055131;28;20048;-76
2023/12/01 11:21:12;;;;;;;18.23;8.85;;;;;;;;;;5087912;28;20185;-75
2023/12/01 11:23:38;;;;;;;;;;;;;;;;;;5085127;28;20048;-76
2023/12/01 11:26:08;;;;;;;16.67;9.48;;;;;;;;;;5075398;28;19967;-76
2023/12/01 11:31:43;;;;;;;16.48;9.13;;;;;;;;;;5074966;28;20089;-75
2023/12/01 11:34:04;;;;;;;16.42;9.02;;;;;;;;;;5074942;28;20048;-76
2023/12/01 11:36:37;;;;;;;18.85;9.45;;;;;;;;;;5058470;28;20048;-75
2023/12/01 11:41:41;;;;;;;15.60;8.73;;;;;;;;;;5061043;28;20493;-77
2023/12/01 11:44:10;;;;;;;16.35;8.68;;;;;;;;;;5074746;28;20589;-76
2023/12/01 11:46:40;;;;;;;15.68;8.82;;;;;;;;;;5058133;28;20044;-81
2023/12/01 11:49:06;;;;;;;18.83;9.90;;;;;;;;;;5044315;28;20040;-76
2023/12/01 11:51:33;;;;;;;13.82;7.65;;;;;;;;;;5038326;28;20501;-76
2023/12/01 11:54:03;;;;;;;16.33;9.40;;;;;;;;;;5054330;28;20137;-76
2023/12/01 11:56:31;;;;;;;16.35;9.43;;;;;;;;;;5041176;28;20052;-77
2023/12/01 11:58:57;;;;;;;17.58;9.98;;;;;;;;;;5034625;28;20080;-77
2023/12/01 12:01:24;;;;;;;17.42;9.82;;;;;;;;;;5073159;28;20048;-77
2023/12/01 12:03:57;;;;;;;17.80;10.45;;;;;;;;;;5079615;28;20055;-75
2023/12/01 12:06:24;;;;;;;15.15;9.07;;;;;;;;;;5086171;28;20044;-76
2023/12/01 12:08:51;;;;;;;15.35;9.10;;;;;;;;;;5073958;28;20048;-76
2023/12/01 12:11:17;;;;;;;14.90;9.18;;;;;;;;;;5058273;28;20119;-76
2023/12/01 12:13:44;;;;;;;13.88;7.53;;;;;;;;;;5073154;28;20093;-76
2023/12/01 12:16:11;;;;;;;13.50;7.82;;;;;;;;;;5070300;28;20116;-75
2023/12/01 12:18:37;;;;;;;17.85;8.93;;;;;;;;;;5084118;28;20123;-74
2023/12/01 12:21:03;;;;;;;;;;;;;;;;;;5074790;28;20035;-75
2023/12/01 12:23:30;;;;;;;17.33;9.48;;;;;;;;;;5073830;28;19944;-74
2023/12/01 12:26:13;;;;;;;17.10;8.75;;;;;;;;;;5074181;28;20081;-74
2023/12/01 12:28:39;;;;;;;16.73;8.88;;;;;;;;;;5073448;28;20044;-80
2023/12/01 12:31:05;;;;;;;17.48;8.63;;;;;;;;;;5070725;28;20115;-74
2023/12/01 12:33:31;;;;;;;16.55;8.93;;;;;;;;;;5048902;28;20076;-75
2023/12/01 12:36:01;;;;;;;17.15;8.65;;;;;;;;;;5064835;28;20113;-74
2023/12/01 12:38:27;;;;;;;17.88;9.18;;;;;;;;;;5073844;28;20051;-74
2023/12/01 12:40:54;;;;;;;17.85;9.55;;;;;;;;;;5073653;28;20051;-74
2023/12/01 12:43:21;;;;;;;16.92;8.70;;;;;;;;;;5073670;28;20054;-74
2023/12/01 12:45:51;;;;;;;19.63;8.40;;;;;;;;;;5056393;28;20485;-75
2023/12/01 12:48:17;;;;;;;17.35;8.15;;;;;;;;;;5057167;28;20059;-74
2023/12/01 12:50:43;;;;;;;;;;;;;;;;;;5073577;28;20040;-78
2023/12/01 12:53:09;;;;;;;19.67;8.75;;;;;;;;;;5074209;28;19920;-72
2023/12/01 12:55:35;;;;;;;;;;;;;;;;;;5070348;28;20036;-72
2023/12/01 12:58:02;;;;;;;20.95;9.50;;;;;;;;;;5072687;28;19920;-73
2023/12/01 13:00:28;;;;;;;18.55;8.80;;;;;;;;;;5073389;28;20047;-73
2023/12/01 13:02:54;;;;;;;19.02;8.63;;;;;;;;;;5049879;28;20502;-73
2023/12/01 13:05:21;;;;;;;19.13;8.93;;;;;;;;;;5051402;28;20041;-74
2023/12/01 13:07:47;;;;;;;23.27;8.80;;;;;;;;;;5049612;28;20106;-75
2023/12/01 13:10:14;;;;;;;;;;;;;;;;;;5018835;28;20390;-76
2023/12/01 13:12:45;;;;;;;16.75;7.47;;;;;;;;;;5033093;28;20004;-77
2023/12/01 13:15:12;;;;;;;15.65;7.20;;;;;;;;;;5032416;28;20103;-77
2023/12/01 13:17:38;;;;;;;;;;;;;;;;;;5045627;28;20041;-73
2023/12/01 13:20:05;;;;;;;17.13;7.22;;;;;;;;;;5045117;28;19921;-76
2023/12/01 13:22:31;;;;;;;16.42;7.88;;;;;;;;;;5050522;28;20049;-75
2023/12/01 13:24:57;;;;;;;;;;;;;;;;;;5050973;28;20045;-76
2023/12/01 13:27:23;;;;;;;15.63;6.88;;;;;;;;;;5049635;28;19994;-74
2023/12/01 13:29:49;;;;;;;16.50;7.25;;;;;;;;;;5050664;28;20091;-75
2023/12/01 13:32:15;;;;;;;;;;;;;;;;;;5054077;28;20040;-74
2023/12/01 13:34:41;;;;;;;19.58;8.10;;;;;;;;;;5050509;28;20282;-75
2023/12/01 13:37:07;;;;;;;;;;;;;;;;;;5027721;28;20053;-75
2023/12/01 13:39:33;;;;;;;16.73;7.78;;;;;;;;;;5047853;28;19921;-75
2023/12/01 13:41:59;;;;;;;;;;;;;;;;;;5049467;28;20091;-73
2023/12/01 13:44:26;;;;;;;15.50;6.93;;;;;;;;;;5048219;28;19967;-73
2023/12/01 13:46:53;;;;;;;;;;;;;;;;;;5033761;28;20353;-72
2023/12/01 13:49:19;;;;;;;16.98;7.38;;;;;;;;;;5037158;28;20301;-73
2023/12/01 13:51:46;;;;;;;15.65;7.57;;;;;;;;;;5051561;28;20047;-73
2023/12/01 13:54:12;;;;;;;17.75;7.45;;;;;;;;;;5049702;28;20041;-73
2023/12/01 13:56:38;;;;;;;;;;;;;;;;;;5033565;28;20045;-74
2023/12/01 13:59:04;;;;;;;18.58;7.35;;;;;;;;;;5047714;28;20388;-76
2023/12/01 14:01:30;;;;;;;17.77;7.95;;;;;;;;;;5026337;28;20053;-75
2023/12/01 14:03:56;;;;;;;;;;;;;;;;;;5033569;28;20056;-75
2023/12/01 14:06:22;;;;;;;15.98;7.43;;;;;;;;;;5059508;28;20266;-75
2023/12/01 14:08:48;;;;;;;17.23;7.05;;;;;;;;;;5057817;28;20051;-82
2023/12/01 14:11:14;;;;;;;18.17;8.18;;;;;;;;;;5059024;28;20080;-75
2023/12/01 14:13:40;;;;;;;16.08;7.25;;;;;;;;;;5026214;28;20437;-75
2023/12/01 14:16:06;;;;;;;;;;;;;;;;;;5027880;28;20102;-75
2023/12/01 14:18:32;;;;;;;16.40;7.55;;;;;;;;;;5055233;28;19920;-76
2023/12/01 14:20:58;;;;;;;;;;;;;;;;;;5061070;28;20189;-75
2023/12/01 14:23:24;;;;;;;17.63;7.30;;;;;;;;;;5068410;28;19921;-76
2023/12/01 14:25:51;;;;;;;17.08;8.00;;;;;;;;;;5047454;28;20040;-79
2023/12/01 14:28:17;;;;;;;16.15;7.63;;;;;;;;;;5063027;28;20045;-76
2023/12/01 14:30:43;;;;;;;16.33;7.13;;;;;;;;;;5064338;28;20071;-76
2023/12/01 14:33:09;;;;;;;;;;;;;;;;;;5045576;28;20190;-76
2023/12/01 14:35:35;;;;;;;16.95;7.43;;;;;;;;;;5063982;28;19920;-75
2023/12/01 14:38:02;;;;;;;;;;;;;;;;;;5059639;28;20041;-76
2023/12/01 14:40:28;;;;;;;17.17;7.82;;;;;;;;;;5052155;28;19920;-74
2023/12/01 14:42:55;;;;;;;;;;;;;;;;;;5085437;28;20041;-75
2023/12/01 14:45:23;;;;;;;18.65;7.72;;;;;;;;;;5047194;28;20346;-74
2023/12/01 14:47:50;;;;;;;18.73;7.43;;;;;;;;;;5066646;28;20134;-74
2023/12/01 14:50:16;;;;;;;18.85;7.75;;;;;;;;;;5053038;28;20045;-75
2023/12/01 14:52:42;;;;;;;;;;;;;;;;;;5053323;28;20079;-74